Time;durP1;ratioP1;P1;durP2;ratioP2;P2;SDS_P1;SDS_P2;PMS_P1;PMS_P2;Temp;Humidity;BMP_temperature;BMP_pressure;BME280_temperature;BME280_humidity;BME280_pressure;Samples;Min_cycle;Max_cycle;Signal;HPM_P1;HPM_P2
2022/11/14 05:31:00;;;;;;;17.88;11.50;;;11.90;87.70;;;;;;5666614;23;20066;-82
2022/11/14 05:33:26;;;;;;;15.55;10.85;;;11.90;87.40;;;;;;4939221;29;20051;-78
2022/11/14 05:35:51;;;;;;;17.13;10.98;;;11.80;87.20;;;;;;4923303;29;20032;-78
2022/11/14 05:38:17;;;;;;;18.13;12.15;;;11.90;87.40;;;;;;4940264;29;20020;-82
2022/11/14 05:40:43;;;;;;;16.08;9.93;;;11.90;87.00;;;;;;4940124;29;20110;-76
2022/11/14 05:43:08;;;;;;;15.35;11.05;;;11.80;86.90;;;;;;4921153;29;20025;-77
2022/11/14 05:45:34;;;;;;;20.75;11.45;;;11.80;87.20;;;;;;4920061;29;20036;-78
2022/11/14 05:47:59;;;;;;;19.83;11.30;;;11.80;87.20;;;;;;4921331;29;20126;-78
2022/11/14 05:50:25;;;;;;;21.35;11.18;;;11.80;87.20;;;;;;4930445;29;20035;-80
2022/11/14 05:52:51;;;;;;;15.15;10.80;;;11.80;87.40;;;;;;4939882;29;20535;-77
2022/11/14 05:55:16;;;;;;;16.17;10.63;;;11.80;87.30;;;;;;4939552;29;20506;-75
2022/11/14 05:57:47;;;;;;;17.38;10.98;;;11.90;87.10;;;;;;4939968;29;20084;-78
2022/11/14 06:00:13;;;;;;;17.08;11.65;;;12.00;87.00;;;;;;4939715;29;20032;-81
2022/11/14 06:02:39;;;;;;;15.93;10.50;;;12.00;86.80;;;;;;4917741;29;20025;-77
2022/11/14 06:05:05;;;;;;;22.92;11.50;;;12.00;86.70;;;;;;4930648;29;20071;-78
2022/11/14 06:07:31;;;;;;;16.65;11.13;;;12.00;86.60;;;;;;4931844;29;20019;-78
2022/11/14 06:09:56;;;;;;;18.90;11.55;;;12.00;86.60;;;;;;4938853;29;20031;-82
2022/11/14 06:12:22;;;;;;;14.93;9.98;;;12.10;86.50;;;;;;4938920;29;20036;-80
2022/11/14 06:14:53;;;;;;;16.05;10.82;;;12.20;86.50;;;;;;4939680;29;20036;-79
2022/11/14 06:17:18;;;;;;;15.93;10.40;;;12.10;86.40;;;;;;4922610;29;20052;-81
2022/11/14 06:19:44;;;;;;;15.40;10.30;;;12.20;86.20;;;;;;4940119;29;20484;-81
2022/11/14 06:22:09;;;;;;;18.27;10.18;;;12.20;86.20;;;;;;4938463;29;20083;-79
2022/11/14 06:24:35;;;;;;;15.50;10.57;;;12.20;86.10;;;;;;4939447;29;20091;-80
2022/11/14 06:27:01;;;;;;;17.27;10.18;;;12.20;86.00;;;;;;4939617;29;20023;-79
2022/11/14 06:29:26;;;;;;;12.95;10.05;;;12.20;85.90;;;;;;4924674;29;20043;-79
2022/11/14 06:31:57;;;;;;;16.05;11.18;;;12.20;86.00;;;;;;4941405;29;20106;-79
2022/11/14 06:34:22;;;;;;;17.88;10.02;;;12.20;85.90;;;;;;4939488;29;20479;-79
2022/11/14 06:36:48;;;;;;;14.63;8.90;;;12.30;85.80;;;;;;4912591;29;20071;-79
2022/11/14 06:39:14;;;;;;;14.27;9.82;;;12.30;85.70;;;;;;4922847;29;20039;-80
2022/11/14 06:41:39;;;;;;;11.52;9.00;;;12.30;85.70;;;;;;4937390;29;20022;-79
2022/11/14 06:44:07;;;;;;;13.77;10.00;;;12.30;85.70;;;;;;4938299;29;20091;-80
2022/11/14 06:46:32;;;;;;;14.55;9.85;;;12.30;85.80;;;;;;4920858;29;20028;-79
2022/11/14 06:49:15;;;;;;;19.58;11.15;;;12.30;85.70;;;;;;4936905;29;20439;-79
2022/11/14 06:51:41;;;;;;;14.57;10.70;;;12.30;85.70;;;;;;4925815;29;20110;-78
2022/11/14 06:54:09;;;;;;;16.25;10.25;;;12.30;85.80;;;;;;4937975;29;20059;-78
2022/11/14 06:56:35;;;;;;;17.08;9.07;;;12.30;85.70;;;;;;4938443;29;20039;-78
2022/11/14 06:59:01;;;;;;;14.63;9.63;;;12.30;85.60;;;;;;4937778;29;20035;-78
2022/11/14 07:01:26;;;;;;;16.27;10.40;;;12.30;85.50;;;;;;4938861;29;20103;-78
2022/11/14 07:03:52;;;;;;;13.88;9.90;;;12.30;85.60;;;;;;4939055;29;20125;-78
2022/11/14 07:06:30;;;;;;;14.82;8.85;;;12.30;85.30;;;;;;4922329;29;20031;-78
2022/11/14 07:08:56;;;;;;;18.08;9.10;;;12.20;85.90;;;;;;4922075;29;20439;-82
2022/11/14 07:11:25;;;;;;;14.02;8.82;;;12.20;85.90;;;;;;4924901;29;20594;-82
2022/11/14 07:13:52;;;;;;;13.75;8.88;;;12.30;85.80;;;;;;4920261;29;20087;-81
2022/11/14 07:16:19;;;;;;;14.02;9.18;;;12.30;85.70;;;;;;4937893;29;20039;-82
2022/11/14 07:18:45;;;;;;;13.23;9.30;;;12.30;85.60;;;;;;4921974;29;20032;-81
2022/11/14 07:21:12;;;;;;;16.20;9.82;;;12.30;85.60;;;;;;4938739;29;20028;-81
2022/11/14 07:23:38;;;;;;;14.35;10.27;;;12.40;85.60;;;;;;4935947;29;20464;-82
2022/11/14 07:26:06;;;;;;;15.85;9.63;;;12.40;85.60;;;;;;4921959;29;20843;-81
2022/11/14 07:28:48;;;;;;;;;;;;;;;;;;;;;
2022/11/14 07:31:16;;;;;;;15.60;8.95;;;12.40;85.50;;;;;;4919734;29;20182;-81
2022/11/14 07:33:43;;;;;;;12.00;8.45;;;12.40;85.30;;;;;;4917661;29;20068;-81
2022/11/14 07:36:10;;;;;;;15.35;10.35;;;12.40;85.50;;;;;;4918662;29;20047;-81
2022/11/14 07:38:36;;;;;;;15.10;9.27;;;12.50;85.50;;;;;;4919734;29;20032;-81
2022/11/14 07:41:11;;;;;;;12.63;8.48;;;12.40;85.40;;;;;;4919521;29;20031;-81
2022/11/14 07:43:36;;;;;;;13.35;9.05;;;12.40;85.50;;;;;;4919715;29;20457;-82
2022/11/14 07:46:06;;;;;;;16.10;9.30;;;12.40;85.60;;;;;;4902677;29;20032;-82
2022/11/14 07:48:32;;;;;;;12.40;9.27;;;12.40;85.60;;;;;;4919602;29;20444;-81
2022/11/14 07:51:15;;;;;;;11.88;8.50;;;12.30;85.70;;;;;;4915704;29;20122;-82
2022/11/14 07:53:41;;;;;;;14.98;8.93;;;12.30;85.80;;;;;;4934744;29;20158;-81
2022/11/14 07:56:11;;;;;;;14.07;8.55;;;12.30;85.90;;;;;;4938023;29;20059;-81
2022/11/14 07:58:38;;;;;;;13.88;9.43;;;12.30;86.00;;;;;;4917200;29;20036;-81
2022/11/14 08:01:05;;;;;;;14.15;10.25;;;12.30;86.30;;;;;;4919521;29;20031;-81
2022/11/14 08:03:32;;;;;;;12.95;8.73;;;12.30;86.20;;;;;;4913092;29;20036;-81
2022/11/14 08:06:01;;;;;;;16.05;9.38;;;12.30;86.40;;;;;;4919384;29;20024;-81
2022/11/14 08:08:26;;;;;;;16.83;8.43;;;12.40;86.30;;;;;;4901658;29;20511;-82
2022/11/14 08:10:56;;;;;;;18.35;9.43;;;12.40;86.20;;;;;;4929213;29;20404;-81
2022/11/14 08:13:22;;;;;;;11.87;8.33;;;12.40;86.10;;;;;;4901905;29;20032;-81
2022/11/14 08:15:47;;;;;;;12.68;8.35;;;12.30;86.40;;;;;;4902173;29;20347;-82
2022/11/14 08:18:13;;;;;;;12.55;9.30;;;12.30;86.80;;;;;;4903907;29;20028;-81
2022/11/14 08:20:39;;;;;;;15.63;9.35;;;12.00;87.90;;;;;;4918094;29;20032;-81
2022/11/14 08:23:08;;;;;;;15.95;8.70;;;11.90;88.80;;;;;;4902022;29;20087;-81
2022/11/14 08:25:34;;;;;;;18.93;9.40;;;11.90;88.70;;;;;;4902068;29;20044;-81
2022/11/14 08:27:59;;;;;;;18.73;9.55;;;12.00;88.80;;;;;;4917941;29;20280;-81
2022/11/14 08:30:25;;;;;;;14.48;10.07;;;12.00;88.60;;;;;;4908767;29;20131;-81
2022/11/14 08:32:51;;;;;;;12.60;8.00;;;12.00;89.00;;;;;;4917670;29;20028;-81
2022/11/14 08:35:17;;;;;;;18.17;9.80;;;12.00;89.10;;;;;;4919041;29;20038;-81
2022/11/14 08:37:42;;;;;;;18.65;11.90;;;12.00;89.10;;;;;;4917876;29;20034;-81
2022/11/14 08:40:13;;;;;;;16.15;9.18;;;12.00;89.60;;;;;;4936985;29;20040;-81
2022/11/14 08:42:39;;;;;;;15.30;9.25;;;11.90;89.30;;;;;;4938022;29;20028;-81
2022/11/14 08:45:05;;;;;;;17.38;11.35;;;11.80;90.10;;;;;;4936216;29;20040;-81
2022/11/14 08:47:31;;;;;;;20.23;11.05;;;11.80;90.90;;;;;;4936836;29;20897;-81
2022/11/14 08:49:57;;;;;;;18.17;10.70;;;11.80;90.70;;;;;;4921041;29;20028;-81
2022/11/14 08:52:23;;;;;;;18.50;10.52;;;11.80;90.50;;;;;;4937976;29;20480;-81
2022/11/14 08:54:48;;;;;;;16.50;9.38;;;11.90;90.70;;;;;;4937101;29;20091;-81
2022/11/14 08:57:14;;;;;;;19.13;12.13;;;11.90;90.00;;;;;;4937936;29;20020;-81
2022/11/14 08:59:43;;;;;;;21.90;12.75;;;11.90;90.40;;;;;;4920851;29;20027;-80
2022/11/14 09:02:10;;;;;;;23.50;14.07;;;11.90;90.10;;;;;;4932876;29;20396;-81
2022/11/14 09:04:36;;;;;;;24.60;13.75;;;11.90;90.10;;;;;;4919009;29;20036;-80
2022/11/14 09:07:02;;;;;;;18.10;11.10;;;11.80;90.10;;;;;;4918869;29;20038;-76
2022/11/14 09:09:27;;;;;;;23.42;13.63;;;11.80;90.50;;;;;;4935071;29;20402;-78
2022/11/14 09:11:53;;;;;;;20.70;11.07;;;11.90;90.70;;;;;;4939457;29;20399;-78
2022/11/14 09:14:18;;;;;;;19.40;10.77;;;11.90;90.40;;;;;;4920139;29;20024;-78
2022/11/14 09:16:46;;;;;;;19.70;11.10;;;11.90;90.40;;;;;;4952195;29;20055;-78
2022/11/14 09:19:12;;;;;;;19.35;11.80;;;11.90;90.50;;;;;;4937778;29;20050;-77
2022/11/14 09:21:38;;;;;;;17.38;10.50;;;12.00;90.40;;;;;;4939146;29;20028;-78
2022/11/14 09:24:04;;;;;;;15.73;9.90;;;12.00;90.60;;;;;;4923943;29;20035;-77
2022/11/14 09:26:30;;;;;;;18.88;11.52;;;12.00;90.50;;;;;;4922994;29;20039;-77
2022/11/14 09:28:55;;;;;;;19.98;10.82;;;12.20;91.00;;;;;;4920975;29;20040;-78
2022/11/14 09:31:21;;;;;;;18.10;10.68;;;12.30;90.90;;;;;;4920368;29;20078;-77
2022/11/14 09:33:47;;;;;;;16.98;9.77;;;12.40;90.60;;;;;;4921993;29;20028;-78
2022/11/14 09:36:17;;;;;;;15.88;9.98;;;12.50;90.40;;;;;;4940785;29;20028;-78
2022/11/14 09:38:43;;;;;;;;;;;12.70;90.40;;;;;;4924242;29;20055;-78
2022/11/14 09:41:38;;;;;;;19.58;9.02;;;12.80;90.00;;;;;;4940184;29;19946;-78
2022/11/14 09:44:11;;;;;;;19.10;9.65;;;12.90;89.60;;;;;;4940667;29;20051;-78
2022/11/14 09:46:45;;;;;;;18.00;10.02;;;13.00;89.30;;;;;;4940711;29;20200;-78
2022/11/14 09:49:25;;;;;;;17.45;9.70;;;13.00;89.10;;;;;;4923490;29;20079;-78
2022/11/14 09:51:59;;;;;;;18.90;10.90;;;13.10;89.00;;;;;;4923049;29;20043;-78
2022/11/14 09:54:28;;;;;;;16.77;9.93;;;13.20;88.90;;;;;;4940572;29;20055;-78
2022/11/14 09:56:54;;;;;;;17.83;10.23;;;13.20;88.70;;;;;;4919732;29;20039;-78
2022/11/14 09:59:20;;;;;;;17.98;9.43;;;13.30;88.60;;;;;;4923315;29;20126;-78
2022/11/14 10:02:09;;;;;;;18.85;10.30;;;13.40;88.50;;;;;;4939706;29;20028;-78
2022/11/14 10:05:04;;;;;;;18.23;10.07;;;13.50;88.60;;;;;;4938342;29;20030;-78
2022/11/14 10:07:44;;;;;;;17.58;10.88;;;13.50;88.40;;;;;;4923278;29;20020;-78
2022/11/14 10:10:37;;;;;;;20.48;10.45;;;13.60;88.30;;;;;;4939683;29;20074;-78
2022/11/14 10:13:05;;;;;;;16.60;9.57;;;13.60;88.40;;;;;;4921183;29;20039;-78
2022/11/14 10:15:44;;;;;;;17.55;11.05;;;13.70;88.20;;;;;;4933543;29;20040;-78
2022/11/14 10:18:46;;;;;;;17.95;11.55;;;13.70;88.40;;;;;;4904251;29;20028;-78
2022/11/14 10:21:49;;;;;;;14.85;9.73;;;13.70;88.40;;;;;;4904326;29;20036;-78
2022/11/14 10:24:33;;;;;;;16.65;9.75;;;13.70;88.40;;;;;;4904180;29;20515;-78
2022/11/14 10:27:03;;;;;;;17.10;9.73;;;13.70;88.40;;;;;;4920773;29;20043;-78
2022/11/14 10:29:47;;;;;;;19.15;9.88;;;13.70;88.60;;;;;;4933285;29;20039;-78
2022/11/14 10:32:27;;;;;;;11.43;8.75;;;13.80;88.60;;;;;;4933892;29;20052;-78
2022/11/14 10:35:06;;;;;;;18.30;9.95;;;13.80;88.80;;;;;;4919644;29;20039;-78
2022/11/14 10:37:48;;;;;;;12.05;7.65;;;14.00;88.80;;;;;;4923763;29;20610;-78
2022/11/14 10:40:37;;;;;;;21.05;8.60;;;14.10;88.70;;;;;;4922441;29;20055;-78
2022/11/14 10:43:33;;;;;;;17.95;9.15;;;14.30;88.60;;;;;;4900990;29;20122;-79
2022/11/14 10:46:06;;;;;;;17.25;8.48;;;14.40;88.50;;;;;;4939292;29;20111;-78
2022/11/14 10:48:37;;;;;;;12.52;8.00;;;14.50;88.30;;;;;;4939032;29;20110;-78
2022/11/14 10:51:11;;;;;;;14.82;7.82;;;14.60;88.40;;;;;;4939294;29;20067;-78
2022/11/14 10:53:37;;;;;;;17.48;9.02;;;14.60;88.30;;;;;;4939695;29;20039;-78
2022/11/14 10:56:03;;;;;;;16.30;9.10;;;14.50;88.30;;;;;;4922123;29;20027;-78
2022/11/14 10:58:29;;;;;;;22.40;9.20;;;14.50;88.40;;;;;;4921594;29;20043;-79
2022/11/14 11:00:54;;;;;;;17.58;8.85;;;14.50;88.40;;;;;;4921968;29;20089;-78
2022/11/14 11:03:38;;;;;;;17.65;9.65;;;14.50;88.50;;;;;;4954095;29;20506;-78
2022/11/14 11:06:04;;;;;;;20.02;8.65;;;14.40;88.50;;;;;;4940511;29;20517;-78
2022/11/14 11:11:30;;;;;;;15.00;8.88;;;14.50;88.80;;;;;;4938766;29;20054;-78
2022/11/14 11:13:59;;;;;;;11.23;7.15;;;14.60;88.80;;;;;;4938231;29;20028;-77
2022/11/14 11:16:27;;;;;;;15.07;7.85;;;14.60;88.70;;;;;;4935756;29;20032;-78
2022/11/14 11:19:06;;;;;;;12.30;7.60;;;14.50;88.70;;;;;;4907706;29;20059;-78
2022/11/14 11:21:49;;;;;;;13.48;7.88;;;14.60;88.70;;;;;;4903014;29;20058;-77
2022/11/14 11:24:44;;;;;;;14.07;7.07;;;14.60;88.60;;;;;;4937518;29;20483;-78
2022/11/14 11:27:25;;;;;;;12.95;7.15;;;14.60;88.60;;;;;;4907037;29;20099;-78
2022/11/14 11:30:18;;;;;;;15.90;7.10;;;14.50;88.60;;;;;;4919875;29;20064;-78
2022/11/14 11:32:44;;;;;;;13.15;7.22;;;14.50;88.40;;;;;;4918409;29;20048;-78
2022/11/14 11:35:15;;;;;;;15.40;8.50;;;14.50;88.50;;;;;;4908416;29;20376;-78
2022/11/14 11:38:01;;;;;;;13.70;7.57;;;14.50;88.50;;;;;;4921350;29;20039;-78
2022/11/14 11:40:28;;;;;;;21.17;9.80;;;14.60;88.70;;;;;;4936065;29;20031;-78
2022/11/14 11:43:35;;;;;;;12.70;7.35;;;14.60;88.40;;;;;;4919203;29;20036;-78
2022/11/14 11:46:08;;;;;;;10.82;7.25;;;14.70;88.40;;;;;;4842593;29;20102;-78
2022/11/14 11:48:37;;;;;;;11.48;7.43;;;14.90;88.10;;;;;;4920624;29;20050;-77
2022/11/14 11:51:05;;;;;;;20.92;8.63;;;14.90;88.00;;;;;;4938717;29;20039;-78
2022/11/14 11:53:35;;;;;;;18.60;8.10;;;14.90;87.80;;;;;;4932798;29;21392;-78
2022/11/14 11:56:40;;;;;;;13.63;7.32;;;14.90;87.80;;;;;;4921233;29;20807;-78
2022/11/14 11:59:32;;;;;;;12.27;6.90;;;15.00;87.30;;;;;;4918156;29;20091;-78
2022/11/14 12:02:01;;;;;;;15.02;8.18;;;15.10;87.00;;;;;;4937720;29;20067;-77
2022/11/14 12:04:28;;;;;;;13.98;7.40;;;15.20;87.20;;;;;;4938308;29;20035;-79
2022/11/14 12:07:03;;;;;;;11.48;6.78;;;15.20;86.80;;;;;;4938095;29;20028;-82
2022/11/14 12:09:38;;;;;;;13.95;5.68;;;15.20;86.90;;;;;;4937929;29;20039;-80
2022/11/14 12:12:11;;;;;;;9.32;6.35;;;15.20;86.90;;;;;;4921237;29;20031;-78
2022/11/14 12:14:58;;;;;;;10.07;5.93;;;15.20;86.80;;;;;;4921425;29;20039;-81
2022/11/14 12:17:36;;;;;;;9.75;5.90;;;15.00;86.80;;;;;;4920598;29;20027;-82
2022/11/14 12:20:36;;;;;;;9.68;6.03;;;15.00;86.70;;;;;;4937638;29;20079;-83
2022/11/14 12:23:24;;;;;;;12.38;6.10;;;15.10;87.00;;;;;;4938055;29;20503;-82
2022/11/14 12:26:05;;;;;;;12.82;5.30;;;15.10;86.90;;;;;;4918847;29;20590;-82
2022/11/14 12:28:36;;;;;;;7.90;3.83;;;15.10;86.40;;;;;;4920040;29;20064;-84
2022/11/14 12:31:04;;;;;;;4.97;2.92;;;15.00;86.30;;;;;;4938075;29;20062;-81
2022/11/14 12:33:34;;;;;;;5.35;3.58;;;15.10;86.20;;;;;;4937579;29;20099;-81
2022/11/14 12:36:04;;;;;;;7.78;3.25;;;15.00;86.20;;;;;;4920459;29;20035;-83
2022/11/14 12:38:53;;;;;;;4.95;3.08;;;15.00;85.70;;;;;;4919001;29;20032;-85
2022/11/14 12:41:29;;;;;;;4.57;2.72;;;14.90;86.20;;;;;;4902141;29;20035;-80
2022/11/14 12:44:25;;;;;;;4.10;2.85;;;14.90;86.40;;;;;;4917899;29;20028;-82
2022/11/14 12:47:03;;;;;;;5.35;3.30;;;14.90;86.70;;;;;;4918798;29;20036;-82
2022/11/14 12:49:47;;;;;;;5.28;2.70;;;14.90;86.60;;;;;;4919102;29;20086;-82
2022/11/14 12:52:42;;;;;;;3.53;1.80;;;14.90;86.60;;;;;;4935249;29;20024;-79
2022/11/14 12:55:23;;;;;;;2.53;1.50;;;14.80;86.40;;;;;;4938950;29;20463;-81
2022/11/14 12:58:17;;;;;;;2.28;1.38;;;14.70;86.40;;;;;;4941150;29;20085;-83
2022/11/14 13:00:45;;;;;;;2.40;1.10;;;14.70;86.50;;;;;;4922131;29;20036;-82
2022/11/14 13:03:23;;;;;;;4.57;1.42;;;14.70;86.40;;;;;;4922572;29;20408;-83
2022/11/14 13:06:30;;;;;;;4.80;2.42;;;14.70;86.40;;;;;;4922761;29;20032;-83
2022/11/14 13:09:17;;;;;;;2.15;1.70;;;14.80;86.60;;;;;;4896260;29;20048;-83
2022/11/14 13:23:25;;;;;;;4.70;1.27;;;14.80;86.30;;;;;;4922117;29;20419;-83
2022/11/14 13:26:09;;;;;;;1.95;1.30;;;14.80;86.50;;;;;;4917545;29;20118;-83
2022/11/14 13:28:38;;;;;;;2.65;1.20;;;14.90;85.80;;;;;;4940709;29;20075;-83
2022/11/14 13:31:22;;;;;;;2.55;1.60;;;15.00;85.80;;;;;;4920320;29;20056;-83
2022/11/14 13:33:49;;;;;;;2.88;1.55;;;14.90;86.00;;;;;;4921169;29;20056;-83
2022/11/14 13:36:34;;;;;;;1.70;1.05;;;14.90;85.60;;;;;;4921494;29;20032;-83
2022/11/14 13:39:08;;;;;;;1.52;1.00;;;14.80;84.30;;;;;;4921752;29;20069;-81
2022/11/14 13:42:07;;;;;;;1.08;0.70;;;14.80;85.20;;;;;;4921783;29;20143;-82
2022/11/14 13:44:48;;;;;;;4.00;0.90;;;14.70;85.00;;;;;;4903346;29;20489;-82
2022/11/14 13:47:34;;;;;;;1.85;0.80;;;14.70;83.80;;;;;;4902341;29;20029;-82
2022/11/14 13:50:13;;;;;;;2.08;0.95;;;14.80;84.60;;;;;;4910154;29;20032;-82
2022/11/14 13:52:44;;;;;;;4.03;1.80;;;14.70;84.60;;;;;;4921415;29;20457;-82
2022/11/14 13:55:31;;;;;;;4.88;2.17;;;14.70;84.70;;;;;;4921582;29;20025;-82
2022/11/14 13:58:11;;;;;;;5.13;1.83;;;14.70;84.40;;;;;;4917253;29;20032;-81
2022/11/14 14:00:59;;;;;;;4.82;2.13;;;14.80;83.90;;;;;;4902254;29;20092;-82
2022/11/14 14:03:56;;;;;;;3.17;1.10;;;14.80;83.40;;;;;;4897149;29;20048;-81
2022/11/14 14:06:30;;;;;;;3.63;1.40;;;14.80;83.00;;;;;;4900530;29;20042;-81
2022/11/14 14:09:26;;;;;;;4.13;1.13;;;14.80;84.00;;;;;;4902137;29;20032;-81
2022/11/14 14:12:00;;;;;;;2.05;1.17;;;14.80;83.90;;;;;;4906464;29;20092;-81
2022/11/14 14:15:04;;;;;;;3.63;1.15;;;14.70;84.00;;;;;;4902024;29;20127;-82
2022/11/14 14:17:37;;;;;;;3.58;1.25;;;14.70;84.50;;;;;;4881985;29;20489;-81
2022/11/14 14:20:36;;;;;;;3.47;1.10;;;14.80;84.30;;;;;;4902289;29;20032;-81
2022/11/14 14:23:20;;;;;;;1.70;0.98;;;14.80;83.90;;;;;;4900972;29;20040;-82
2022/11/14 14:26:11;;;;;;;1.70;1.05;;;14.80;83.50;;;;;;4901867;29;20048;-81
2022/11/14 14:29:24;;;;;;;2.60;0.98;;;14.80;83.40;;;;;;4909476;29;20904;-82
2022/11/14 14:31:50;;;;;;;2.35;0.75;;;14.80;83.70;;;;;;4916511;29;20060;-81
2022/11/14 14:34:26;;;;;;;6.22;1.42;;;15.00;82.40;;;;;;4902662;29;20436;-81
2022/11/14 14:36:54;;;;;;;1.40;0.77;;;15.10;82.20;;;;;;4908109;29;20051;-82
2022/11/14 14:39:26;;;;;;;4.28;1.63;;;15.00;81.30;;;;;;4902103;29;20029;-81
2022/11/14 14:41:54;;;;;;;3.42;0.82;;;15.00;82.20;;;;;;4901746;29;20107;-80
2022/11/14 14:44:47;;;;;;;3.05;0.82;;;14.90;79.90;;;;;;4914343;29;20043;-81
2022/11/14 14:47:38;;;;;;;2.13;0.80;;;14.80;80.70;;;;;;4913627;29;20119;-81
2022/11/14 14:50:13;;;;;;;1.65;0.80;;;14.70;80.50;;;;;;4901336;29;20033;-81
2022/11/14 14:52:39;;;;;;;1.48;0.70;;;14.60;81.00;;;;;;4908532;29;20115;-81
2022/11/14 14:55:07;;;;;;;2.60;0.65;;;14.50;79.90;;;;;;4919637;29;20068;-81
2022/11/14 14:57:33;;;;;;;2.65;1.08;;;14.50;81.50;;;;;;4919186;29;20039;-80
2022/11/14 15:00:06;;;;;;;2.35;0.77;;;14.50;81.40;;;;;;4919490;29;20032;-80
2022/11/14 15:02:32;;;;;;;1.23;0.65;;;14.50;79.70;;;;;;4920121;29;20671;-80
2022/11/14 15:04:59;;;;;;;1.52;0.82;;;14.50;80.10;;;;;;4920079;29;20028;-80
2022/11/14 15:07:28;;;;;;;1.73;0.80;;;14.60;80.80;;;;;;4920221;29;20024;-80
2022/11/14 15:09:56;;;;;;;3.17;0.90;;;14.60;80.00;;;;;;4918268;29;20080;-80
2022/11/14 15:12:24;;;;;;;3.03;1.05;;;14.50;79.60;;;;;;4920092;29;20031;-80
2022/11/14 15:14:53;;;;;;;2.35;0.80;;;14.50;79.50;;;;;;4947967;29;20036;-80
2022/11/14 15:17:20;;;;;;;4.30;1.02;;;14.50;79.60;;;;;;4919942;29;20055;-80
2022/11/14 15:19:48;;;;;;;2.05;1.17;;;14.50;80.30;;;;;;4919822;29;20126;-80
2022/11/14 15:22:13;;;;;;;5.15;2.22;;;14.40;78.50;;;;;;4919389;29;20028;-80
2022/11/14 15:24:40;;;;;;;5.55;1.85;;;14.30;79.30;;;;;;4918472;29;20563;-80
2022/11/14 15:27:14;;;;;;;2.28;1.35;;;14.30;80.20;;;;;;4919933;29;20070;-80
2022/11/14 15:30:18;;;;;;;5.35;1.20;;;14.30;79.50;;;;;;4918875;29;20036;-80
2022/11/14 15:32:49;;;;;;;4.68;1.45;;;14.30;81.90;;;;;;4919417;29;20071;-80
2022/11/14 15:35:18;;;;;;;2.65;1.08;;;14.20;79.80;;;;;;4919614;29;20028;-80
2022/11/14 15:38:04;;;;;;;3.22;1.17;;;14.20;80.60;;;;;;4914914;29;20103;-80
2022/11/14 15:40:31;;;;;;;2.35;0.80;;;14.10;80.70;;;;;;4900620;29;20447;-80
2022/11/14 15:43:00;;;;;;;1.45;0.80;;;14.10;80.70;;;;;;4900686;29;20108;-80
2022/11/14 15:45:37;;;;;;;3.38;1.23;;;14.00;80.00;;;;;;4915440;29;20511;-80
2022/11/14 15:48:12;;;;;;;2.40;0.80;;;14.00;81.50;;;;;;4919439;29;20036;-80
2022/11/14 15:50:39;;;;;;;3.78;1.08;;;14.10;81.60;;;;;;4918374;29;20040;-80
2022/11/14 15:53:17;;;;;;;1.90;0.85;;;14.00;82.60;;;;;;4908827;29;20041;-80
2022/11/14 15:55:42;;;;;;;1.85;1.00;;;14.00;81.90;;;;;;4900690;29;20039;-79
2022/11/14 15:58:10;;;;;;;3.33;1.10;;;14.00;80.90;;;;;;4900737;29;20048;-80
2022/11/14 16:00:42;;;;;;;1.38;0.90;;;13.90;81.40;;;;;;4916061;29;20038;-80
2022/11/14 16:03:14;;;;;;;4.20;1.20;;;13.90;82.50;;;;;;4916375;29;20076;-79
2022/11/14 16:05:39;;;;;;;2.58;0.98;;;13.90;82.10;;;;;;4919038;29;20078;-80
2022/11/14 16:08:05;;;;;;;3.10;1.20;;;13.80;82.20;;;;;;4919318;29;20028;-80
2022/11/14 16:10:31;;;;;;;2.20;0.95;;;13.80;82.30;;;;;;4918490;29;20040;-80
2022/11/14 16:12:56;;;;;;;5.28;1.35;;;13.80;83.00;;;;;;4919214;29;20060;-80
2022/11/14 16:15:22;;;;;;;1.58;1.25;;;13.70;83.80;;;;;;4911719;29;20044;-80
2022/11/14 16:17:49;;;;;;;2.30;1.20;;;13.70;83.20;;;;;;4900214;29;20056;-80
2022/11/14 16:20:24;;;;;;;2.85;1.20;;;13.60;83.90;;;;;;4916983;29;20029;-80
2022/11/14 16:22:52;;;;;;;2.30;1.17;;;13.60;84.50;;;;;;4919244;29;20111;-80
2022/11/14 16:25:23;;;;;;;1.90;0.80;;;13.50;84.80;;;;;;4917582;29;20036;-80
2022/11/14 16:27:49;;;;;;;3.47;1.23;;;13.50;84.70;;;;;;4925833;29;20515;-80
2022/11/14 16:30:17;;;;;;;4.38;1.20;;;13.30;85.00;;;;;;4921296;29;20046;-80
2022/11/14 16:32:45;;;;;;;3.70;1.52;;;13.30;84.90;;;;;;4937068;29;20048;-80
2022/11/14 16:35:22;;;;;;;3.10;1.35;;;13.30;84.90;;;;;;4924827;29;20035;-80
2022/11/14 16:37:49;;;;;;;2.15;1.15;;;13.20;84.80;;;;;;4941311;29;20023;-80
2022/11/14 16:40:16;;;;;;;2.17;1.33;;;13.20;84.30;;;;;;4925010;29;20028;-77
2022/11/14 16:42:42;;;;;;;4.60;1.40;;;13.20;84.80;;;;;;4934928;29;20436;-77
2022/11/14 16:45:08;;;;;;;3.30;1.42;;;13.10;85.30;;;;;;4924764;29;20087;-77
2022/11/14 16:47:33;;;;;;;4.82;1.42;;;13.00;84.80;;;;;;4924773;29;20429;-77
2022/11/14 16:50:00;;;;;;;2.97;1.55;;;13.00;84.30;;;;;;4941095;29;20034;-77
2022/11/14 16:52:26;;;;;;;2.72;1.77;;;12.90;83.90;;;;;;4939793;29;20120;-76
2022/11/14 16:54:51;;;;;;;3.47;1.75;;;12.90;85.40;;;;;;4918417;29;20028;-75
2022/11/14 16:57:17;;;;;;;4.85;1.70;;;12.80;84.70;;;;;;4930660;29;20031;-83
2022/11/14 16:59:43;;;;;;;3.80;1.83;;;12.80;84.60;;;;;;4916621;29;20027;-77
2022/11/14 17:02:15;;;;;;;5.05;1.88;;;12.80;84.70;;;;;;4918149;29;20023;-82
2022/11/14 17:04:44;;;;;;;4.05;1.80;;;12.80;85.60;;;;;;4924367;29;20108;-83
2022/11/14 17:07:11;;;;;;;3.97;1.90;;;12.80;85.00;;;;;;4913556;29;20043;-79
2022/11/14 17:09:37;;;;;;;3.15;1.80;;;12.70;85.30;;;;;;4924872;29;20249;-78
2022/11/14 17:12:03;;;;;;;6.15;2.30;;;12.70;85.40;;;;;;4940113;29;20032;-82
2022/11/14 17:14:49;;;;;;;4.45;2.60;;;12.60;84.40;;;;;;4936109;29;20566;-77
2022/11/14 17:17:14;;;;;;;5.53;2.33;;;12.60;84.60;;;;;;4921933;29;20111;-78
2022/11/14 17:19:44;;;;;;;7.03;1.95;;;12.60;84.70;;;;;;4922395;29;20028;-76
2022/11/14 17:22:14;;;;;;;4.63;2.10;;;12.60;84.90;;;;;;4923596;29;20416;-79
2022/11/14 17:24:40;;;;;;;7.03;3.17;;;12.50;84.70;;;;;;4850998;29;20579;-78
2022/11/14 17:27:06;;;;;;;5.85;3.03;;;12.50;84.40;;;;;;4918779;29;20055;-83
2022/11/14 17:29:32;;;;;;;8.50;3.42;;;12.50;83.70;;;;;;4918751;29;20035;-79
2022/11/14 17:31:57;;;;;;;7.88;3.75;;;12.50;83.60;;;;;;4920279;29;20071;-77
2022/11/14 17:34:23;;;;;;;6.30;3.53;;;12.40;83.60;;;;;;4938361;29;20399;-78
2022/11/14 17:36:49;;;;;;;7.32;3.55;;;12.50;83.50;;;;;;4932062;29;20035;-77
2022/11/14 17:39:14;;;;;;;5.50;3.83;;;12.40;82.80;;;;;;4935484;29;20019;-77
2022/11/14 17:41:40;;;;;;;10.43;3.67;;;12.40;83.00;;;;;;4934548;29;20447;-75
2022/11/14 17:44:08;;;;;;;5.32;3.15;;;12.40;82.30;;;;;;4934307;29;20491;-77
2022/11/14 17:46:34;;;;;;;9.63;3.60;;;12.40;82.70;;;;;;4930775;29;20035;-79
2022/11/14 17:49:00;;;;;;;7.40;3.10;;;12.40;83.10;;;;;;4918988;29;20023;-76
2022/11/14 17:51:26;;;;;;;6.82;2.85;;;12.30;83.00;;;;;;4924682;29;20043;-77
2022/11/14 17:53:51;;;;;;;8.30;2.83;;;12.30;82.00;;;;;;4913174;29;20028;-77
2022/11/14 17:56:23;;;;;;;5.72;2.65;;;12.30;82.10;;;;;;4916241;29;20062;-78
2022/11/14 17:58:50;;;;;;;13.23;2.60;;;12.30;81.50;;;;;;4913960;29;20136;-76
2022/11/14 18:01:19;;;;;;;3.60;2.40;;;12.20;81.70;;;;;;4939058;29;20091;-74
2022/11/14 18:03:45;;;;;;;2.95;2.10;;;12.20;82.00;;;;;;4918117;29;20123;-73
2022/11/14 18:06:15;;;;;;;4.75;2.60;;;12.20;81.50;;;;;;4930752;29;20032;-74
2022/11/14 18:08:41;;;;;;;6.00;2.78;;;12.20;82.30;;;;;;4930269;29;20507;-74
2022/11/14 18:11:10;;;;;;;4.25;2.67;;;12.10;80.70;;;;;;4924754;29;20032;-74
2022/11/14 18:13:36;;;;;;;4.68;2.50;;;12.10;81.80;;;;;;4910931;29;20027;-74
2022/11/14 18:16:09;;;;;;;4.75;3.63;;;12.10;81.70;;;;;;4914426;29;20032;-73
2022/11/14 18:18:35;;;;;;;5.57;3.97;;;12.00;82.20;;;;;;4930569;29;20056;-74
2022/11/14 18:21:24;;;;;;;5.65;3.75;;;12.10;81.70;;;;;;4930716;29;20027;-73
2022/11/14 18:23:50;;;;;;;20.48;10.32;;;12.00;81.50;;;;;;4927013;29;20024;-73
2022/11/14 18:26:17;;;;;;;24.17;12.25;;;12.00;81.60;;;;;;4915586;29;20056;-74
2022/11/14 18:28:45;;;;;;;27.48;15.77;;;12.00;82.10;;;;;;4931787;29;20032;-74
2022/11/14 18:31:12;;;;;;;18.25;10.93;;;12.00;82.60;;;;;;4920009;29;20055;-73
2022/11/14 18:33:39;;;;;;;20.92;12.77;;;12.00;81.40;;;;;;4911340;29;20067;-73
2022/11/14 18:36:09;;;;;;;32.60;17.52;;;12.00;81.20;;;;;;4906803;29;20040;-74
2022/11/14 18:38:35;;;;;;;35.58;18.27;;;12.00;81.70;;;;;;4935848;29;20031;-74
2022/11/14 18:41:04;;;;;;;30.45;16.25;;;12.00;81.80;;;;;;4903740;29;20519;-77
2022/11/14 18:43:33;;;;;;;24.67;13.35;;;11.90;81.60;;;;;;4926982;29;20027;-75
2022/11/14 18:46:10;;;;;;;16.13;10.98;;;12.00;82.70;;;;;;4923569;29;20039;-75
2022/11/14 18:48:37;;;;;;;17.15;12.25;;;12.00;82.30;;;;;;4939879;29;20040;-78
2022/11/14 18:51:05;;;;;;;28.83;15.63;;;12.00;82.80;;;;;;4934278;29;20124;-76